Weather observations for the past three days for
Victoria, Victoria Regional Airport
Metric (Imperial)
Date Time (cdt) Wind (kph) Vis. (km) Weather Sky Cond. Temperature (ºC) Relative Humidity Wind Chill (°C) Heat Index (°C) Pressure Precipitation (cm)
Air Dwpt 6 hour altimeter (cm) sea level (mb) 1 hr 3 hr 6 hr
Max. Min.
09 16:51 Vrbl 9 16.09 Fair CLR 32.8 19.4 45% 35 75.59 1007.7
09 15:51 Vrbl 9 16.09 Partly Cloudy SCT065 32.8 19.4 45% 35 75.62 1007.9
09 14:51 Vrbl 6 16.09 A Few Clouds FEW050 31.7 18.9 47% 33 75.67 1008.5
09 13:51 Vrbl 7 16.09 Fair CLR 31.1 18.3 46% 32 75.69 1009.0
09 12:51 NW 6 16.09 Fair CLR 29.4 18.3 30 22.2 51% 30 75.77 1010.0
09 11:51 W 9 16.09 Fair CLR 28.3 19.4 59% 30 75.79 1010.2
09 10:51 W 13 16.09 Fair CLR 27.2 21.1 69% 29 75.74 1009.5
09 09:51 SW 9 16.09 Fair CLR 25 22.8 88% 26 75.74 1009.4
09 08:51 S 6 16.09 Fair CLR 24.4 22.2 88% 25 75.79 1010.3
09 07:51 NW 11 16.09 A Few Clouds FEW018 FEW023 22.8 21.7 94% 75.77 1009.8
09 06:51 SE 44 G 61 14.48 Mostly Cloudy and Windy FEW006 SCT055 BKN080 23.3 22.8 23.9 22.2 97% 75.51 1006.6 0.08 0.08
09 05:51 Calm 4.02 Thunderstorm in Vicinity Light Rain Fog/Mist SCT001 BKN012 BKN110 23.3 23.3 100% 75.74 1009.6
09 04:51 SE 11 0.80 Fog VV002 23.3 23.3 100% 75.69 1008.8
09 03:51 S 9 4.83 Fog/Mist OVC002 23.3 23.3 100% 75.67 1008.7
09 02:51 SE 11 6.44 Fog/Mist BKN004 OVC019 22.8 22.2 96% 75.69 1008.8
09 01:51 N 7 8.05 Fog/Mist FEW005 OVC018 22.2 21.7 97% 75.74 1009.5
09 00:51 Calm 8.05 Fog/Mist FEW025 FEW030 OVC035 22.2 21.7 23.3 22.2 97% 75.77 1009.8
08 23:51 SE 6 9.66 Fog/Mist OVC033 22.2 21.7 97% 75.79 1010.2
08 22:51 E 11 11.27 Overcast SCT011 OVC020 22.8 21.1 90% 75.74 1009.7
08 21:51 NE 11 11.27 Overcast OVC010 22.8 21.1 90% 75.72 1009.1
08 20:51 NE 15 11.27 Overcast OVC009 22.8 21.1 90% 75.64 1008.2
08 19:51 E 11 8.05 Fog/Mist OVC010 23.3 21.1 88% 75.62 1008.0
08 18:51 E 15 9.66 Fog/Mist OVC011 23.3 21.1 23.9 21.7 88% 75.59 1007.6
08 17:51 NE 13 9.66 Fog/Mist OVC011 23.3 21.1 88% 75.62 1007.9
08 16:51 E 13 11.27 Overcast OVC011 23.9 21.1 84% 24 75.64 1008.3
08 15:51 NE 15 9.66 Overcast with Haze OVC009 23.9 21.1 84% 24 75.69 1009.0
08 14:51 NE 15 14.48 Overcast OVC009 23.9 20.6 82% 24 75.74 1009.7
08 13:51 NE 15 11.27 Overcast OVC007 22.8 20.6 87% 75.77 1010.1
08 12:51 NE 15 9.66 Fog/Mist OVC007 21.7 19.4 21.7 17.8 87% 75.84 1011.0 0.05
08 11:51 N 11 14.48 Overcast OVC008 20.6 18.3 87% 75.9 1011.5
08 10:51 N 15 16.09 Overcast OVC007 21.1 18.9 87% 75.9 1011.7
08 09:51 NE 7 14.48 Overcast SCT008 OVC041 20 18.3 90% 75.95 1012.3 0.05
08 08:51 NE 6 16.09 Overcast SCT008 OVC041 18.9 17.2 90% 75.95 1012.1 0.03
08 07:51 Calm 16.09 Overcast BKN008 OVC043 18.3 16.7 90% 76 1013.1 0.03
08 06:51 NE 13 16.09 Overcast OVC008 18.9 16.1 20.6 18.9 84% 75.95 1012.3
08 05:51 NW 11 16.09 Overcast OVC010 19.4 16.1 81% 75.97 1012.7
08 04:51 NE 11 16.09 Overcast OVC012 19.4 15.6 79% 75.9 1011.7
08 03:51 Calm 16.09 Overcast OVC011 20 16.1 78% 75.95 1012.3
08 02:51 N 9 16.09 Overcast OVC015 20 15.6 76% 75.95 1012.2
08 01:51 N 11 16.09 Overcast OVC019 20 15.6 76% 76.02 1013.5
08 00:51 N 7 16.09 Overcast OVC025 20.6 16.7 23.3 20.6 78% 76.05 1013.5
07 23:51 N 11 16.09 Mostly Cloudy BKN027 21.1 18.3 84% 76 1013.1
07 22:51 E 13 16.09 Fair CLR 22.2 17.8 76% 75.95 1012.4
07 21:51 E 11 16.09 Overcast OVC024 22.2 17.8 76% 76 1013.1
07 20:51 N 9 16.09 Overcast OVC029 22.8 18.3 76% 76.05 1013.7
07 19:51 NE 11 16.09 Overcast OVC027 22.8 18.9 79% 75.97 1012.5
07 18:51 NE 7 16.09 Overcast OVC026 23.3 18.3 23.9 20 74% 76 1013.1
07 17:51 NE 9 16.09 Overcast OVC029 23.3 17.8 71% 76 1013.0
07 16:51 NE 15 16.09 Overcast OVC029 22.8 17.2 71% 76 1012.8
07 15:51 NE 15 16.09 Overcast OVC023 23.3 17.2 69% 76.02 1013.4
07 14:51 NE 13 16.09 Overcast OVC021 22.2 16.7 71% 76.07 1014.1
07 13:51 N 19 16.09 Overcast OVC019 21.7 16.1 71% 76.12 1014.8
07 12:51 N 20 16.09 Overcast OVC017 20 15.6 20.6 18.9 76% 76.2 1015.6
07 11:51 N 19 G 33 16.09 Overcast OVC013 19.4 15.6 79% 76.2 1015.7
07 10:51 N 17 16.09 Overcast OVC015 18.9 15.6 81% 76.2 1015.8
07 09:51 N 19 16.09 Overcast OVC015 18.9 15.6 81% 76.15 1015.1
07 08:51 N 20 16.09 Overcast OVC015 18.9 15.6 81% 76.15 1015.1
07 07:51 N 22 G 39 16.09 Overcast OVC016 18.9 15 78% 76.07 1013.9
07 06:51 N 24 16.09 Overcast OVC015 18.9 15 20.6 18.9 78% 76 1013.0
07 05:51 N 15 16.09 Overcast BKN015 OVC020 18.9 15 78% 76.02 1013.2
07 04:51 N 13 16.09 Overcast OVC014 18.9 15 78% 76 1012.9
07 03:51 N 13 16.09 Overcast OVC015 19.4 15.6 79% 75.97 1012.5
07 02:51 N 17 16.09 Overcast OVC015 19.4 15.6 79% 75.97 1012.5
07 01:51 N 20 G 33 16.09 Overcast OVC017 20 16.1 78% 75.97 1012.8
07 00:51 N 19 16.09 Overcast OVC017 20.6 16.1 27.8 20.6 76% 76 1012.8
06 23:51 N 17 16.09 Overcast OVC015 20.6 15.6 73% 75.97 1012.5
06 22:51 N 15 16.09 Overcast OVC016 21.1 16.1 73% 75.92 1012.0
06 21:51 N 19 16.09 Overcast OVC015 22.8 17.8 74% 75.87 1011.2
06 20:51 N 20 16.09 Overcast BKN012 OVC038 23.9 19.4 76% 24 75.77 1010.1
06 19:51 SE 11 8.05 Fog/Mist CLR 26.1 24.4 90% 28 75.67 1008.5
06 18:51 SE 17 8.05 A Few Clouds with Haze FEW014 27.8 24.4 30.6 27.2 82% 32 75.62 1008.0
06 17:51 SE 22 9.66 Mostly Cloudy with Haze SCT014 SCT024 BKN031 28.3 24.4 79% 33 75.59 1007.6
Date Time (cdt) Wind (kph) Vis. (km) Weather Sky Cond. Air Dwpt Max. Min. Relative Humidity Wind Chill (°C) Heat Index (°C) altimeter (cm) sea level (mb) 1 hr 3 hr 6 hr
6 hour
Temperature (ºC) Pressure Precipitation (cm)